createdAt,value
2023-03-29T00:00:23.263Z,85.40
2023-03-29T00:02:50.255Z,85.50
2023-03-29T00:05:19.069Z,85.60
2023-03-29T00:07:46.397Z,85.60
2023-03-29T00:10:13.385Z,85.70
2023-03-29T00:12:41.059Z,85.80
2023-03-29T00:15:08.482Z,85.90
2023-03-29T00:17:37.133Z,86.00
2023-03-29T00:20:07.168Z,86.00
2023-03-29T00:22:34.291Z,86.00
2023-03-29T00:25:01.521Z,86.10
2023-03-29T00:27:29.309Z,86.20
2023-03-29T00:29:58.820Z,86.30
2023-03-29T00:32:26.097Z,86.40
2023-03-29T00:34:53.017Z,86.40
2023-03-29T00:37:20.026Z,86.50
2023-03-29T00:39:47.032Z,86.50
2023-03-29T00:42:15.132Z,86.50
2023-03-29T00:45:01.520Z,86.60
2023-03-29T00:47:42.353Z,86.70
2023-03-29T00:50:09.287Z,86.70
2023-03-29T00:52:36.264Z,86.80
2023-03-29T00:55:06.487Z,86.90
2023-03-29T00:57:33.515Z,87.00
2023-03-29T01:00:00.706Z,87.00
2023-03-29T01:02:28.740Z,87.00
2023-03-29T01:04:58.749Z,87.00
2023-03-29T01:08:05.448Z,87.00
2023-03-29T01:10:40.683Z,87.30
2023-03-29T01:13:10.566Z,87.10
2023-03-29T01:15:37.719Z,87.10
2023-03-29T01:18:07.335Z,87.10
2023-03-29T01:21:03.152Z,87.10
2023-03-29T01:23:58.471Z,87.30
2023-03-29T01:26:33.930Z,87.30
2023-03-29T01:29:11.516Z,87.20
2023-03-29T01:31:47.927Z,87.30
2023-03-29T01:34:25.911Z,87.30
2023-03-29T01:36:58.901Z,87.40
2023-03-29T01:39:28.095Z,87.40
2023-03-29T01:42:25.572Z,87.50
2023-03-29T01:45:13.626Z,87.50
2023-03-29T01:48:04.138Z,87.60
2023-03-29T01:50:51.894Z,87.60
2023-03-29T01:53:29.277Z,87.70
2023-03-29T01:55:57.682Z,87.60
2023-03-29T01:58:27.465Z,87.60
2023-03-29T02:00:55.516Z,87.70
2023-03-29T02:03:26.625Z,87.70
2023-03-29T02:05:54.355Z,87.70
2023-03-29T02:08:21.578Z,87.80
2023-03-29T02:10:48.528Z,87.80
2023-03-29T02:13:16.085Z,88.40
2023-03-29T02:15:48.512Z,87.90
2023-03-29T02:18:16.523Z,87.90
2023-03-29T02:20:47.424Z,88.00
2023-03-29T02:23:24.696Z,88.10
2023-03-29T02:25:53.700Z,88.20
2023-03-29T02:28:21.876Z,88.30
2023-03-29T02:30:56.406Z,88.40
2023-03-29T02:34:08.069Z,88.50
2023-03-29T02:36:42.743Z,88.60
2023-03-29T02:39:13.799Z,88.50
2023-03-29T02:41:40.848Z,88.60
2023-03-29T02:44:08.327Z,88.60
2023-03-29T02:46:37.138Z,88.60
2023-03-29T02:49:05.286Z,88.70
2023-03-29T02:51:33.033Z,88.80
2023-03-29T02:54:06.787Z,88.80
2023-03-29T02:56:48.398Z,88.80
2023-03-29T02:59:19.592Z,88.80
2023-03-29T03:01:46.611Z,88.80
2023-03-29T03:04:13.651Z,88.90
2023-03-29T03:06:40.718Z,88.90
2023-03-29T03:09:07.826Z,88.90
2023-03-29T03:11:34.815Z,88.90
2023-03-29T03:14:03.500Z,88.90
2023-03-29T03:16:32.863Z,89.00
2023-03-29T03:19:01.077Z,89.00
2023-03-29T03:21:30.546Z,89.00
2023-03-29T03:23:57.421Z,89.00
2023-03-29T03:26:30.327Z,89.00
2023-03-29T03:28:57.669Z,89.10
2023-03-29T03:31:24.713Z,89.10
2023-03-29T03:33:52.981Z,89.10
2023-03-29T03:36:19.936Z,89.10
2023-03-29T03:38:47.904Z,89.10
2023-03-29T03:41:14.836Z,89.10
2023-03-29T03:43:43.969Z,89.20
2023-03-29T03:46:10.931Z,89.20
2023-03-29T03:48:38.004Z,89.20
2023-03-29T03:51:08.262Z,89.20
2023-03-29T03:53:35.492Z,89.20
2023-03-29T03:56:08.865Z,89.20
2023-03-29T03:58:36.862Z,89.20
2023-03-29T04:01:06.632Z,89.30
2023-03-29T04:03:33.752Z,89.30
2023-03-29T04:06:01.667Z,89.40
2023-03-29T04:08:28.692Z,89.40
2023-03-29T04:10:56.903Z,89.40
2023-03-29T04:13:24.162Z,89.40
2023-03-29T04:15:54.319Z,89.50
2023-03-29T04:18:21.745Z,89.50
2023-03-29T04:20:48.927Z,89.50
2023-03-29T04:23:16.178Z,89.60
2023-03-29T04:25:45.884Z,89.60
2023-03-29T04:28:13.073Z,89.60
2023-03-29T04:30:40.102Z,89.60
2023-03-29T04:33:07.121Z,89.60
2023-03-29T04:35:34.073Z,89.60
2023-03-29T04:38:01.161Z,89.60
2023-03-29T04:40:30.892Z,89.70
2023-03-29T04:42:57.839Z,89.70
2023-03-29T04:45:25.516Z,89.70
2023-03-29T04:47:54.218Z,89.70
2023-03-29T04:50:21.176Z,89.70
2023-03-29T04:52:50.855Z,89.80
2023-03-29T04:55:17.964Z,89.80
2023-03-29T04:57:45.204Z,89.70
2023-03-29T05:00:15.563Z,89.70
2023-03-29T05:02:44.494Z,89.70
2023-03-29T05:05:11.869Z,89.70
2023-03-29T05:07:38.822Z,89.80
2023-03-29T05:10:06.322Z,89.80
2023-03-29T05:12:33.486Z,89.80
2023-03-29T05:15:00.469Z,89.80
2023-03-29T05:17:27.560Z,89.80
2023-03-29T05:19:54.918Z,89.80
2023-03-29T05:22:21.991Z,89.80
2023-03-29T05:24:49.152Z,89.80
2023-03-29T05:27:17.272Z,89.90
2023-03-29T05:29:46.891Z,90.00
2023-03-29T05:32:16.522Z,90.00
2023-03-29T05:34:43.676Z,90.00
2023-03-29T05:37:13.691Z,90.00
2023-03-29T05:39:40.859Z,90.30
2023-03-29T05:42:07.868Z,90.10
2023-03-29T05:44:35.108Z,90.10
2023-03-29T05:47:02.052Z,90.10
2023-03-29T05:49:29.213Z,90.10
2023-03-29T05:51:57.294Z,90.10
2023-03-29T05:54:25.066Z,90.10
2023-03-29T05:56:52.328Z,90.10
2023-03-29T05:59:19.889Z,90.20
2023-03-29T06:01:49.939Z,90.20
2023-03-29T06:04:18.323Z,90.20
2023-03-29T06:06:45.295Z,90.20
2023-03-29T06:09:12.512Z,90.10
2023-03-29T06:11:39.501Z,90.10
2023-03-29T06:14:06.448Z,90.10
2023-03-29T06:16:33.505Z,90.10
2023-03-29T06:19:00.770Z,90.10
2023-03-29T06:21:28.655Z,90.10
2023-03-29T06:23:55.679Z,90.10
2023-03-29T06:26:22.907Z,90.10
2023-03-29T06:28:52.065Z,90.10
2023-03-29T06:31:20.034Z,90.10
2023-03-29T06:33:47.797Z,90.10
2023-03-29T06:36:16.381Z,90.00
2023-03-29T06:38:45.701Z,90.00
2023-03-29T06:41:15.494Z,90.00
2023-03-29T06:43:43.324Z,90.00
2023-03-29T06:46:12.464Z,90.00
2023-03-29T06:48:42.290Z,89.90
2023-03-29T06:51:09.330Z,89.90
2023-03-29T06:53:36.818Z,89.90
2023-03-29T06:56:09.467Z,89.90
2023-03-29T06:58:36.962Z,89.80
2023-03-29T07:01:04.572Z,89.70
2023-03-29T07:03:36.704Z,89.60
2023-03-29T07:06:09.842Z,89.60
2023-03-29T07:08:48.517Z,89.60
2023-03-29T07:11:15.794Z,89.50
2023-03-29T07:13:43.228Z,89.50
2023-03-29T07:16:14.516Z,89.40
2023-03-29T07:18:41.974Z,89.40
2023-03-29T07:21:10.519Z,89.50
2023-03-29T07:23:39.793Z,89.50
2023-03-29T07:26:11.584Z,89.60
2023-03-29T07:28:39.894Z,89.60
2023-03-29T07:31:11.335Z,89.70
2023-03-29T07:33:39.417Z,89.70
2023-03-29T07:36:09.772Z,89.70
2023-03-29T07:38:38.108Z,89.70
2023-03-29T07:41:08.430Z,89.80
2023-03-29T07:43:35.717Z,89.80
2023-03-29T07:46:10.339Z,89.60
2023-03-29T07:48:37.490Z,89.60
2023-03-29T07:51:04.895Z,90.00
2023-03-29T07:53:52.161Z,89.50
2023-03-29T07:56:19.201Z,89.40
2023-03-29T07:58:52.350Z,89.40
2023-03-29T08:01:20.184Z,89.30
2023-03-29T08:03:47.577Z,89.20
2023-03-29T08:06:17.293Z,89.20
2023-03-29T08:08:45.508Z,89.10
2023-03-29T08:11:15.617Z,89.00
2023-03-29T08:13:42.807Z,88.90
2023-03-29T08:16:10.027Z,88.90
2023-03-29T08:18:58.822Z,88.80
2023-03-29T08:21:33.709Z,88.80
2023-03-29T08:24:01.106Z,88.90
2023-03-29T08:26:36.171Z,88.80
2023-03-29T08:29:43.290Z,88.90
2023-03-29T08:32:10.868Z,88.80
2023-03-29T08:38:04.823Z,88.70
2023-03-29T08:40:32.169Z,88.60
2023-03-29T08:43:27.787Z,88.70
2023-03-29T08:46:01.193Z,88.70
2023-03-29T08:48:42.312Z,88.70
2023-03-29T08:51:33.542Z,88.80
2023-03-29T08:54:02.633Z,88.90
2023-03-29T08:56:34.021Z,88.90
2023-03-29T08:59:01.343Z,88.90
2023-03-29T09:01:35.068Z,88.90
2023-03-29T09:04:09.916Z,88.90
2023-03-29T09:06:39.709Z,89.00
2023-03-29T09:09:14.898Z,88.70
2023-03-29T09:12:01.867Z,88.60
2023-03-29T09:14:52.127Z,88.70
2023-03-29T09:17:43.787Z,88.80
2023-03-29T09:20:59.243Z,88.80
2023-03-29T09:24:04.164Z,88.80
2023-03-29T09:27:14.494Z,88.90
2023-03-29T09:29:59.830Z,88.90
2023-03-29T09:32:34.604Z,88.80
2023-03-29T09:35:04.720Z,88.80
2023-03-29T09:37:36.821Z,88.80
2023-03-29T09:40:07.020Z,88.90
2023-03-29T09:42:36.439Z,88.80
2023-03-29T09:45:08.680Z,88.80
2023-03-29T09:47:46.447Z,88.80
2023-03-29T09:50:27.712Z,88.80
2023-03-29T09:53:05.238Z,88.70
2023-03-29T09:55:36.736Z,88.60
2023-03-29T09:58:15.625Z,88.70
2023-03-29T10:00:42.807Z,88.80
2023-03-29T10:03:10.718Z,88.80
2023-03-29T10:05:40.005Z,88.70
2023-03-29T10:08:29.864Z,88.70
2023-03-29T10:11:04.664Z,88.60
2023-03-29T10:13:33.276Z,88.50
2023-03-29T10:16:08.013Z,88.40
2023-03-29T10:18:44.184Z,88.30
2023-03-29T10:21:21.156Z,88.20
2023-03-29T10:23:49.270Z,88.10
2023-03-29T10:26:28.719Z,88.20
2023-03-29T10:28:57.437Z,88.30
2023-03-29T10:31:24.531Z,88.30
2023-03-29T10:34:09.113Z,88.40
2023-03-29T10:36:36.465Z,88.50
2023-03-29T10:39:07.570Z,88.50
2023-03-29T10:41:34.649Z,88.50
2023-03-29T10:44:01.707Z,88.50
2023-03-29T10:46:33.871Z,88.50
2023-03-29T10:49:10.398Z,88.70
2023-03-29T10:51:38.598Z,88.80
2023-03-29T10:54:14.516Z,88.80
2023-03-29T10:56:52.419Z,89.00
2023-03-29T11:00:01.197Z,89.20
2023-03-29T11:02:52.804Z,89.30
2023-03-29T11:05:57.759Z,89.20
2023-03-29T11:09:01.296Z,89.40
2023-03-29T11:11:45.897Z,89.40
2023-03-29T11:14:22.124Z,89.50
2023-03-29T11:16:52.883Z,89.60
2023-03-29T11:19:41.654Z,89.60
2023-03-29T11:22:32.947Z,89.70
2023-03-29T11:25:14.961Z,89.80
2023-03-29T11:27:44.830Z,89.80
2023-03-29T11:30:41.332Z,90.00
2023-03-29T11:33:30.762Z,90.00
2023-03-29T11:36:26.592Z,90.00
2023-03-29T11:39:49.391Z,90.00
2023-03-29T11:42:23.949Z,90.00
2023-03-29T11:44:54.637Z,89.80
2023-03-29T11:47:23.302Z,89.70
2023-03-29T11:50:10.766Z,89.70
2023-03-29T11:52:43.739Z,89.70
2023-03-29T11:55:19.384Z,89.60
2023-03-29T11:57:56.978Z,89.60
2023-03-29T12:00:32.510Z,89.60
2023-03-29T12:03:18.760Z,89.40
2023-03-29T12:05:51.024Z,89.40
2023-03-29T12:08:42.713Z,89.40
2023-03-29T12:11:34.011Z,89.50
2023-03-29T12:14:40.435Z,89.40
2023-03-29T12:17:09.888Z,89.40
2023-03-29T12:19:49.083Z,89.30
2023-03-29T12:22:16.333Z,89.20
2023-03-29T12:24:48.033Z,89.10
2023-03-29T12:27:33.690Z,88.80
2023-03-29T12:30:21.157Z,88.70
2023-03-29T12:33:00.180Z,88.40
2023-03-29T12:35:34.321Z,88.10
2023-03-29T12:38:19.410Z,88.00
2023-03-29T12:40:54.401Z,87.80
2023-03-29T12:43:32.777Z,87.70
2023-03-29T12:46:09.383Z,87.60
2023-03-29T12:48:41.670Z,87.70
2023-03-29T12:51:16.710Z,87.60
2023-03-29T12:53:50.711Z,87.50
2023-03-29T12:56:24.567Z,87.30
2023-03-29T12:59:14.074Z,87.20
2023-03-29T13:01:52.439Z,86.90
2023-03-29T13:04:36.468Z,86.80
2023-03-29T13:07:08.448Z,86.70
2023-03-29T13:09:50.097Z,86.50
2023-03-29T13:12:23.084Z,86.30
2023-03-29T13:15:16.483Z,86.20
2023-03-29T13:18:17.951Z,86.20
2023-03-29T13:20:48.272Z,86.00
2023-03-29T13:23:36.613Z,85.90
2023-03-29T13:26:38.884Z,85.80
2023-03-29T13:30:07.496Z,85.50
2023-03-29T13:32:54.189Z,85.30
2023-03-29T13:35:42.844Z,85.00
2023-03-29T13:38:10.068Z,85.00
2023-03-29T13:41:00.413Z,85.00
2023-03-29T13:43:37.946Z,84.90
2023-03-29T13:47:02.572Z,84.90
2023-03-29T13:49:53.820Z,84.90
2023-03-29T13:53:00.916Z,84.80
2023-03-29T14:02:00.939Z,84.40
2023-03-29T14:04:39.387Z,84.20
2023-03-29T14:07:07.194Z,84.00
2023-03-29T14:10:24.479Z,83.90
2023-03-29T14:12:59.227Z,83.70
2023-03-29T14:15:31.269Z,83.60
2023-03-29T14:18:11.589Z,83.50
2023-03-29T14:24:21.272Z,83.30
2023-03-29T14:27:01.879Z,83.30
2023-03-29T14:30:03.185Z,83.30
2023-03-29T14:33:10.382Z,83.30
2023-03-29T14:36:09.941Z,83.20
2023-03-29T14:40:08.510Z,83.10
2023-03-29T14:42:57.018Z,83.30
2023-03-29T14:48:47.696Z,83.00
2023-03-29T14:51:47.169Z,82.80
2023-03-29T14:54:40.548Z,82.60
2023-03-29T14:58:01.724Z,82.40
2023-03-29T15:04:50.796Z,82.00
2023-03-29T15:07:56.190Z,81.90
2023-03-29T15:10:54.078Z,81.70
2023-03-29T15:13:24.698Z,81.50
2023-03-29T15:15:59.891Z,81.30
2023-03-29T15:18:41.153Z,81.00
2023-03-29T15:21:08.638Z,80.90
2023-03-29T15:23:59.856Z,80.90
2023-03-29T15:26:33.773Z,81.00
2023-03-29T15:29:13.144Z,81.00
2023-03-29T15:31:41.950Z,81.00
2023-03-29T15:34:13.509Z,80.90
2023-03-29T15:36:45.276Z,80.90
2023-03-29T15:39:17.167Z,80.90
2023-03-29T15:41:44.865Z,80.80
2023-03-29T15:44:12.166Z,80.80
2023-03-29T15:46:39.597Z,80.80
2023-03-29T15:49:09.338Z,80.80
2023-03-29T15:51:36.804Z,80.80
2023-03-29T15:54:04.304Z,80.90
2023-03-29T15:56:32.203Z,81.00
2023-03-29T15:58:59.525Z,81.00
2023-03-29T16:01:34.454Z,81.00
2023-03-29T16:04:12.348Z,80.90
2023-03-29T16:06:44.825Z,80.90
2023-03-29T16:09:15.149Z,80.90
2023-03-29T16:11:43.106Z,80.80
2023-03-29T16:14:24.487Z,80.70
2023-03-29T16:16:52.542Z,80.70
2023-03-29T16:19:19.847Z,80.70
2023-03-29T16:21:48.307Z,80.60
2023-03-29T16:24:20.772Z,80.50
2023-03-29T16:26:48.604Z,80.40
2023-03-29T16:29:17.571Z,80.30
2023-03-29T16:31:46.060Z,80.30
2023-03-29T16:34:13.901Z,80.20
2023-03-29T16:36:41.811Z,80.10
2023-03-29T16:39:13.307Z,80.50
2023-03-29T16:41:48.614Z,79.90
2023-03-29T16:44:22.959Z,79.90
2023-03-29T16:46:52.446Z,79.80
2023-03-29T16:49:19.866Z,79.90
2023-03-29T16:51:47.418Z,79.90
2023-03-29T16:54:15.467Z,79.90
2023-03-29T16:56:42.913Z,80.00
2023-03-29T16:59:10.062Z,79.90
2023-03-29T17:01:37.610Z,79.90
2023-03-29T17:04:05.845Z,79.90
2023-03-29T17:06:33.234Z,79.90
2023-03-29T17:09:01.232Z,79.90
2023-03-29T17:11:29.457Z,79.90
2023-03-29T17:13:57.089Z,79.90
2023-03-29T17:16:24.549Z,79.90
2023-03-29T17:18:54.250Z,79.80
2023-03-29T17:21:21.522Z,79.80
2023-03-29T17:23:51.557Z,79.80
2023-03-29T17:26:18.556Z,79.80
2023-03-29T17:28:47.153Z,79.90
2023-03-29T17:31:14.736Z,79.90
2023-03-29T17:33:49.054Z,80.10
2023-03-29T17:36:17.803Z,80.40
2023-03-29T17:38:48.925Z,80.20
2023-03-29T17:41:16.291Z,80.30
2023-03-29T17:43:45.716Z,80.30
2023-03-29T17:46:12.702Z,80.40
2023-03-29T17:48:39.732Z,80.50
2023-03-29T17:51:07.109Z,80.80
2023-03-29T17:53:34.118Z,81.10
2023-03-29T17:56:01.453Z,81.40
2023-03-29T17:58:28.792Z,81.70
2023-03-29T18:00:55.952Z,82.00
2023-03-29T18:03:23.517Z,82.40
2023-03-29T18:05:51.321Z,82.60
2023-03-29T18:08:19.133Z,82.90
2023-03-29T18:10:46.804Z,83.20
2023-03-29T18:13:15.084Z,83.40
2023-03-29T18:15:42.304Z,83.60
2023-03-29T18:18:11.495Z,83.90
2023-03-29T18:20:38.729Z,84.10
2023-03-29T18:23:08.761Z,84.30
2023-03-29T18:25:36.355Z,84.50
2023-03-29T18:28:05.740Z,84.70
2023-03-29T18:30:32.873Z,85.00
2023-03-29T18:33:00.119Z,85.40
2023-03-29T18:35:27.812Z,85.70
2023-03-29T18:37:55.299Z,85.90
2023-03-29T18:40:28.264Z,86.10
2023-03-29T18:42:55.309Z,86.40
2023-03-29T18:45:22.476Z,86.60
2023-03-29T18:47:50.835Z,86.70
2023-03-29T18:50:18.164Z,86.90
2023-03-29T18:52:48.004Z,87.00
2023-03-29T18:55:16.715Z,87.20
2023-03-29T18:57:44.198Z,87.40
2023-03-29T19:00:14.922Z,87.50
2023-03-29T19:02:43.147Z,87.70
2023-03-29T19:05:28.843Z,87.90
2023-03-29T19:07:56.788Z,88.20
2023-03-29T19:10:25.056Z,88.20
2023-03-29T19:12:57.237Z,88.40
2023-03-29T19:15:27.359Z,88.50
2023-03-29T19:17:54.731Z,88.60
2023-03-29T19:20:22.034Z,88.70
2023-03-29T19:22:49.189Z,88.70
2023-03-29T19:25:16.208Z,88.90
2023-03-29T19:27:43.336Z,88.90
2023-03-29T19:30:10.957Z,89.00
2023-03-29T19:32:38.206Z,89.00
2023-03-29T19:35:05.988Z,89.10
2023-03-29T19:37:33.135Z,89.30
2023-03-29T19:42:41.311Z,89.20
2023-03-29T19:45:12.255Z,89.20
2023-03-29T19:47:40.358Z,89.30
2023-03-29T19:50:08.548Z,89.30
2023-03-29T19:52:36.190Z,89.40
2023-03-29T19:55:04.418Z,89.50
2023-03-29T19:57:34.919Z,90.00
2023-03-29T20:00:02.181Z,89.60
2023-03-29T20:02:29.275Z,89.70
2023-03-29T20:04:57.802Z,89.80
2023-03-29T20:07:24.947Z,89.90
2023-03-29T20:09:52.552Z,90.00
2023-03-29T20:12:19.666Z,90.00
2023-03-29T20:14:46.999Z,90.00
2023-03-29T20:17:14.066Z,90.00
2023-03-29T20:19:44.576Z,90.00
2023-03-29T20:22:12.559Z,90.10
2023-03-29T20:24:39.739Z,90.00
2023-03-29T20:27:06.888Z,90.00
2023-03-29T20:29:34.185Z,90.10
2023-03-29T20:32:01.384Z,90.10
2023-03-29T20:34:28.693Z,90.10
2023-03-29T20:37:01.033Z,90.10
2023-03-29T20:39:29.876Z,90.20
2023-03-29T20:41:57.262Z,90.20
2023-03-29T20:44:26.779Z,90.20
2023-03-29T20:47:04.066Z,90.20
2023-03-29T20:49:37.223Z,90.20
2023-03-29T20:52:06.222Z,90.30
2023-03-29T20:54:33.418Z,90.30
2023-03-29T20:57:00.435Z,90.30
2023-03-29T20:59:28.680Z,90.30
2023-03-29T21:02:00.451Z,90.40
2023-03-29T21:04:28.138Z,90.40
2023-03-29T21:06:56.288Z,90.40
2023-03-29T21:09:23.738Z,90.40
2023-03-29T21:11:51.057Z,90.40
2023-03-29T21:14:21.366Z,90.40
2023-03-29T21:16:50.810Z,90.40
2023-03-29T21:19:17.829Z,90.70
2023-03-29T21:21:45.094Z,90.40
2023-03-29T21:24:13.859Z,90.40
2023-03-29T21:26:41.655Z,90.50
2023-03-29T21:29:08.731Z,90.50
2023-03-29T21:31:35.823Z,90.50
2023-03-29T21:34:02.913Z,90.50
2023-03-29T21:36:30.218Z,90.50
2023-03-29T21:38:57.280Z,90.50
2023-03-29T21:41:24.327Z,90.50
2023-03-29T21:43:51.283Z,90.50
2023-03-29T21:46:18.363Z,90.50
2023-03-29T21:48:45.417Z,90.50
2023-03-29T21:51:12.458Z,90.50
2023-03-29T21:53:39.630Z,90.50
2023-03-29T21:56:07.056Z,90.50
2023-03-29T21:58:33.990Z,90.50
2023-03-29T22:01:03.795Z,90.50
2023-03-29T22:03:31.439Z,90.50
2023-03-29T22:06:00.123Z,90.50
2023-03-29T22:08:27.575Z,90.50
2023-03-29T22:10:58.171Z,90.50
2023-03-29T22:13:29.007Z,90.50
2023-03-29T22:15:58.842Z,90.50
2023-03-29T22:18:30.528Z,90.50
2023-03-29T22:20:57.693Z,90.50
2023-03-29T22:23:25.081Z,90.50
2023-03-29T22:25:52.318Z,90.50
2023-03-29T22:28:19.317Z,90.50
2023-03-29T22:30:46.369Z,90.50
2023-03-29T22:33:13.324Z,90.50
2023-03-29T22:35:40.527Z,90.50
2023-03-29T22:38:07.496Z,90.50
2023-03-29T22:40:34.443Z,90.50
2023-03-29T22:43:03.950Z,90.50
2023-03-29T22:45:32.199Z,90.50
2023-03-29T22:47:59.169Z,90.50
2023-03-29T22:50:26.662Z,90.50
2023-03-29T22:52:53.629Z,90.50
2023-03-29T22:55:20.917Z,90.50
2023-03-29T22:57:48.484Z,90.60
2023-03-29T23:00:15.676Z,90.60
2023-03-29T23:02:45.701Z,90.60
2023-03-29T23:05:12.688Z,90.60
2023-03-29T23:07:39.561Z,90.60
2023-03-29T23:10:07.658Z,90.60
2023-03-29T23:12:38.500Z,90.50
2023-03-29T23:15:06.479Z,90.50
2023-03-29T23:17:34.979Z,90.50
2023-03-29T23:20:02.305Z,90.50
2023-03-29T23:22:29.746Z,90.60
2023-03-29T23:24:56.865Z,90.60
2023-03-29T23:27:23.922Z,90.50
2023-03-29T23:29:50.943Z,90.50
2023-03-29T23:32:17.942Z,90.50
2023-03-29T23:34:45.267Z,90.50
2023-03-29T23:37:12.292Z,90.50
2023-03-29T23:39:39.603Z,90.50
2023-03-29T23:42:06.708Z,90.40
2023-03-29T23:44:33.776Z,90.40
2023-03-29T23:47:03.733Z,90.40
2023-03-29T23:49:30.935Z,90.40
2023-03-29T23:52:00.312Z,90.40
2023-03-29T23:54:27.830Z,90.40
2023-03-29T23:56:54.949Z,90.40
2023-03-29T23:59:27.014Z,90.40
